Time;durP1;ratioP1;P1;durP2;ratioP2;P2;SDS_P1;SDS_P2;PMS_P1;PMS_P2;Temp;Humidity;BMP_temperature;BMP_pressure;BME280_temperature;BME280_humidity;BME280_pressure;Samples;Min_cycle;Max_cycle;Signal;HPM_P1;HPM_P2
2022/09/02 03:00:14;;;;;;;1.20;0.65;;;23.20;39.40;;;;;;5979800;23;45910;31
2022/09/02 03:02:39;;;;;;;2.45;0.80;;;23.10;39.30;;;;;;4777256;29;45979;-65
2022/09/02 03:05:06;;;;;;;2.17;1.13;;;23.20;39.50;;;;;;4826233;29;45920;-67
2022/09/02 03:07:31;;;;;;;1.80;0.77;;;23.10;39.50;;;;;;4795905;29;45265;-65
2022/09/02 03:09:57;;;;;;;2.03;0.73;;;23.10;39.40;;;;;;4823396;29;45283;-65
2022/09/02 03:12:23;;;;;;;4.15;0.90;;;23.10;39.40;;;;;;4828966;29;45374;-65
2022/09/02 03:14:49;;;;;;;1.10;0.70;;;23.10;39.40;;;;;;4830483;29;46050;-65
2022/09/02 03:17:15;;;;;;;1.17;0.70;;;23.10;39.40;;;;;;4805075;29;45008;-66
2022/09/02 03:19:40;;;;;;;2.05;0.85;;;23.00;39.40;;;;;;4813647;29;45325;-65
2022/09/02 03:22:06;;;;;;;1.58;0.80;;;23.10;39.40;;;;;;4840037;29;45471;-65
2022/09/02 03:24:32;;;;;;;1.10;0.75;;;23.10;39.50;;;;;;4845498;29;45734;-65
2022/09/02 03:26:57;;;;;;;2.65;0.80;;;23.00;39.40;;;;;;4842641;29;45200;-66
2022/09/02 03:29:23;;;;;;;1.73;0.80;;;23.10;39.50;;;;;;4842978;29;45359;-65
2022/09/02 03:31:48;;;;;;;5.70;1.02;;;23.10;39.40;;;;;;4842127;29;45208;-65
2022/09/02 03:34:14;;;;;;;2.55;0.77;;;23.00;39.40;;;;;;4841730;29;44911;-65
2022/09/02 03:36:42;;;;;;;1.15;0.80;;;23.00;39.30;;;;;;4843050;29;45435;-67
2022/09/02 03:39:08;;;;;;;2.45;0.82;;;23.00;39.40;;;;;;4810970;29;45557;-66
2022/09/02 03:41:34;;;;;;;1.85;0.88;;;23.00;39.50;;;;;;4830309;29;44805;-66
2022/09/02 03:44:00;;;;;;;1.55;0.93;;;23.00;39.50;;;;;;4827354;29;46035;-65
2022/09/02 03:46:26;;;;;;;0.90;0.80;;;23.00;39.50;;;;;;4813937;29;45976;-66
2022/09/02 03:48:52;;;;;;;2.80;0.90;;;23.00;39.50;;;;;;4841879;29;45466;-66
2022/09/02 03:51:19;;;;;;;3.95;1.08;;;22.90;39.40;;;;;;4826243;29;45998;-65
2022/09/02 03:53:44;;;;;;;1.40;1.02;;;22.90;39.50;;;;;;4824621;29;45633;-65
2022/09/02 03:56:11;;;;;;;1.85;1.00;;;22.90;39.50;;;;;;4842511;29;45628;-65
2022/09/02 03:58:36;;;;;;;3.95;1.15;;;22.90;39.50;;;;;;4828070;29;44704;-65
2022/09/02 04:01:02;;;;;;;2.03;1.20;;;22.90;39.50;;;;;;4839380;29;45713;-65
2022/09/02 04:03:28;;;;;;;2.22;1.13;;;22.90;39.50;;;;;;4823499;29;45783;-65
2022/09/02 04:05:53;;;;;;;1.58;1.10;;;22.90;39.50;;;;;;4827622;29;45271;-66
2022/09/02 04:08:20;;;;;;;1.50;1.15;;;22.90;39.50;;;;;;4841524;29;45101;-66
2022/09/02 04:10:45;;;;;;;2.65;0.98;;;22.90;39.50;;;;;;4826621;29;45083;-65
2022/09/02 04:13:11;;;;;;;1.60;1.00;;;22.90;39.50;;;;;;4824564;29;45142;-66
2022/09/02 04:15:43;;;;;;;1.80;0.95;;;22.90;39.50;;;;;;4826915;29;45040;-65
2022/09/02 04:18:09;;;;;;;2.25;1.17;;;22.90;39.50;;;;;;4826847;29;45651;-65
2022/09/02 04:20:37;;;;;;;2.47;1.10;;;22.80;39.50;;;;;;4826881;29;45429;-65
2022/09/02 04:23:03;;;;;;;1.40;0.75;;;22.80;39.50;;;;;;4841900;29;45045;-66
2022/09/02 04:25:29;;;;;;;1.75;0.90;;;22.80;39.60;;;;;;4806878;29;45606;-67
2022/09/02 04:27:55;;;;;;;1.85;0.90;;;22.80;39.50;;;;;;4832107;29;45535;-66
2022/09/02 04:30:23;;;;;;;3.33;0.93;;;22.80;39.50;;;;;;4836751;29;45326;-66
2022/09/02 04:32:48;;;;;;;2.08;1.00;;;22.80;39.60;;;;;;4806409;29;45635;-67
2022/09/02 04:35:14;;;;;;;1.48;1.00;;;22.80;39.50;;;;;;4820904;29;45710;-65
2022/09/02 04:37:40;;;;;;;1.33;0.90;;;22.80;39.60;;;;;;4817014;29;45031;-66
2022/09/02 04:40:06;;;;;;;1.33;0.90;;;22.80;39.60;;;;;;4835306;29;45165;-67
2022/09/02 04:42:32;;;;;;;1.85;0.98;;;22.80;39.60;;;;;;4821527;29;47071;-66
2022/09/02 04:44:58;;;;;;;3.22;0.90;;;22.80;39.60;;;;;;4823924;29;45782;-65
2022/09/02 04:47:25;;;;;;;3.28;0.93;;;22.70;39.60;;;;;;4824045;29;45612;-65
2022/09/02 04:49:50;;;;;;;3.67;0.98;;;22.70;39.60;;;;;;4820575;29;44753;-65
2022/09/02 04:52:16;;;;;;;1.10;0.80;;;22.80;39.70;;;;;;4828159;29;46206;-66
2022/09/02 04:54:42;;;;;;;1.55;0.95;;;22.70;39.60;;;;;;4819485;29;45668;-66
2022/09/02 04:57:07;;;;;;;3.40;1.00;;;22.70;39.60;;;;;;4838791;29;45449;-66
2022/09/02 04:59:35;;;;;;;1.52;0.90;;;22.70;39.60;;;;;;4838002;29;45327;-66
2022/09/02 05:02:01;;;;;;;2.03;0.90;;;22.70;39.60;;;;;;4833897;29;45422;-67
2022/09/02 05:04:27;;;;;;;3.72;1.00;;;22.70;39.60;;;;;;4833667;29;45272;-66
2022/09/02 05:06:53;;;;;;;1.83;1.00;;;22.70;39.60;;;;;;4819941;29;45794;-66
2022/09/02 05:09:19;;;;;;;2.15;0.90;;;22.70;39.60;;;;;;4802841;29;45338;-66
2022/09/02 05:11:46;;;;;;;4.88;0.98;;;22.70;39.60;;;;;;4838159;29;45893;-67
2022/09/02 05:14:14;;;;;;;7.93;1.20;;;22.70;39.70;;;;;;4819628;29;45725;-65
2022/09/02 05:16:41;;;;;;;4.03;1.23;;;22.60;39.70;;;;;;4841343;29;45508;-65
2022/09/02 05:19:08;;;;;;;4.45;0.93;;;22.70;39.80;;;;;;4819715;29;45391;-66
2022/09/02 05:21:38;;;;;;;6.50;1.15;;;22.60;39.80;;;;;;4820618;29;46163;-66
2022/09/02 05:24:04;;;;;;;5.25;1.15;;;22.70;39.80;;;;;;4836179;29;45369;-66
2022/09/02 05:26:34;;;;;;;3.83;1.60;;;22.70;39.80;;;;;;4835675;29;45370;-66
2022/09/02 05:29:02;;;;;;;5.70;1.67;;;22.80;39.80;;;;;;4808037;29;45690;-65
2022/09/02 05:31:27;;;;;;;8.32;1.50;;;22.70;39.70;;;;;;4822111;29;46308;-66
2022/09/02 05:33:53;;;;;;;4.75;2.05;;;22.80;39.80;;;;;;4823367;29;45518;-66
2022/09/02 05:36:20;;;;;;;4.93;2.25;;;22.80;39.80;;;;;;4842535;29;45294;-66
2022/09/02 05:38:45;;;;;;;6.53;2.35;;;22.80;39.80;;;;;;4804832;29;45209;-67
2022/09/02 05:41:13;;;;;;;10.38;2.30;;;22.80;39.80;;;;;;4811242;29;46902;-65
2022/09/02 05:43:39;;;;;;;7.15;1.98;;;22.80;39.80;;;;;;4819987;29;45419;-65
2022/09/02 05:46:06;;;;;;;10.48;2.00;;;22.80;39.80;;;;;;4835104;29;45678;-66
2022/09/02 05:51:17;;;;;;;6.93;1.70;;;23.00;39.70;;;;;;4836046;29;45228;-65
2022/09/02 05:53:43;;;;;;;5.05;1.52;;;23.10;39.70;;;;;;4807760;29;45043;-66
2022/09/02 05:56:09;;;;;;;4.57;1.55;;;23.20;39.40;;;;;;4833864;29;45469;-66
2022/09/02 05:58:34;;;;;;;6.40;1.52;;;23.30;39.20;;;;;;4819450;29;45771;-65
2022/09/02 06:01:05;;;;;;;7.43;2.28;;;23.40;39.00;;;;;;4834288;29;45303;-65
2022/09/02 06:03:31;;;;;;;7.43;2.55;;;23.50;38.90;;;;;;4823293;29;45724;-65
2022/09/02 06:05:57;;;;;;;5.22;2.78;;;23.60;38.90;;;;;;4817127;29;45547;-66
2022/09/02 06:08:23;;;;;;;6.75;2.72;;;23.60;38.80;;;;;;4820932;29;45444;-66
2022/09/02 06:10:48;;;;;;;5.03;2.78;;;23.60;38.80;;;;;;4820936;29;45951;-65
2022/09/02 06:13:14;;;;;;;10.20;3.75;;;23.60;38.80;;;;;;4823879;29;45241;-66
2022/09/02 06:15:42;;;;;;;6.55;3.47;;;23.60;38.90;;;;;;4821989;29;45584;-66
2022/09/02 06:18:09;;;;;;;6.13;3.17;;;23.60;39.00;;;;;;4818489;29;45286;-66
2022/09/02 06:20:46;;;;;;;8.60;3.25;;;23.60;39.10;;;;;;4805026;29;46583;-66
2022/09/02 06:23:12;;;;;;;9.82;2.78;;;23.60;39.40;;;;;;4840657;29;45600;-65
2022/09/02 06:25:38;;;;;;;6.47;2.13;;;23.60;39.30;;;;;;4786689;29;45970;-65
2022/09/02 06:28:04;;;;;;;6.10;1.83;;;23.50;39.30;;;;;;4832283;29;45481;-64
2022/09/02 06:30:29;;;;;;;7.78;1.80;;;23.60;39.40;;;;;;4818763;29;46223;-66
2022/09/02 06:32:55;;;;;;;5.38;1.60;;;23.60;39.40;;;;;;4822417;29;45065;-65
2022/09/02 06:35:21;;;;;;;5.55;1.98;;;23.50;39.30;;;;;;4834921;29;45327;-66
2022/09/02 06:37:47;;;;;;;5.05;1.70;;;23.50;39.30;;;;;;4802872;29;45930;-65
2022/09/02 06:40:13;;;;;;;3.78;1.27;;;23.60;39.40;;;;;;4802210;29;46085;-65
2022/09/02 06:42:39;;;;;;;5.22;1.13;;;23.50;39.40;;;;;;4823355;29;44737;-65
2022/09/02 06:45:05;;;;;;;4.70;1.10;;;23.50;39.60;;;;;;4825297;29;44742;-64
2022/09/02 06:47:31;;;;;;;3.15;1.20;;;23.40;39.60;;;;;;4821162;29;45413;-67
2022/09/02 06:49:57;;;;;;;2.63;1.10;;;23.40;39.70;;;;;;4835339;29;45555;-65
2022/09/02 06:52:23;;;;;;;3.30;0.90;;;23.40;39.90;;;;;;4804826;29;45316;-66
2022/09/02 06:54:49;;;;;;;3.08;1.17;;;23.30;39.90;;;;;;4821979;29;45617;-66
2022/09/02 06:57:15;;;;;;;4.15;1.08;;;23.30;39.90;;;;;;4837276;29;45517;-66
2022/09/02 06:59:41;;;;;;;3.60;1.13;;;23.20;40.00;;;;;;4820009;29;45938;-65
2022/09/02 07:02:07;;;;;;;1.92;0.93;;;23.20;40.10;;;;;;4834750;29;45644;-66
2022/09/02 07:07:16;;;;;;;3.28;0.90;;;23.20;40.30;;;;;;4836014;29;45552;-67
2022/09/02 07:09:43;;;;;;;1.80;0.88;;;23.20;40.30;;;;;;4818951;29;45280;-67
2022/09/02 07:12:08;;;;;;;4.13;0.80;;;23.20;40.30;;;;;;4833608;29;45517;-66
2022/09/02 07:14:38;;;;;;;3.85;1.00;;;23.20;40.40;;;;;;4836028;29;44728;-65
2022/09/02 07:17:04;;;;;;;1.95;0.85;;;23.20;40.40;;;;;;4826686;29;45772;-66
2022/09/02 07:19:30;;;;;;;2.58;1.05;;;23.30;40.30;;;;;;4835249;29;45715;-66
2022/09/02 07:21:55;;;;;;;1.15;0.70;;;23.20;40.30;;;;;;4810058;29;46183;-67
2022/09/02 07:24:21;;;;;;;0.88;0.70;;;23.30;40.30;;;;;;4823508;29;45338;-66
2022/09/02 07:26:47;;;;;;;2.60;0.75;;;23.30;40.30;;;;;;4823229;29;45309;-65
2022/09/02 07:29:12;;;;;;;0.90;0.70;;;23.30;40.40;;;;;;4834322;29;45517;-66
2022/09/02 07:31:40;;;;;;;1.20;0.70;;;23.30;40.30;;;;;;4801729;29;45677;-65
2022/09/02 07:34:06;;;;;;;1.05;0.70;;;23.30;40.20;;;;;;4804369;29;45576;-65
2022/09/02 07:36:33;;;;;;;2.40;1.00;;;23.40;40.30;;;;;;4835040;29;45626;-66
2022/09/02 07:38:59;;;;;;;1.48;0.70;;;23.30;40.20;;;;;;4838399;29;46236;-67
2022/09/02 07:41:25;;;;;;;1.45;0.70;;;23.40;40.10;;;;;;4832393;29;45410;-66
2022/09/02 07:43:51;;;;;;;0.90;0.70;;;23.40;40.10;;;;;;4818856;29;45284;-67
2022/09/02 07:46:17;;;;;;;1.15;0.68;;;23.40;40.00;;;;;;4837370;29;44784;-65
2022/09/02 07:48:42;;;;;;;4.85;0.60;;;23.40;40.10;;;;;;4823474;29;47157;-65
2022/09/02 07:51:08;;;;;;;3.72;0.73;;;23.40;39.90;;;;;;4839223;29;45065;-65
2022/09/02 07:53:35;;;;;;;1.40;0.57;;;23.40;39.90;;;;;;4824365;29;48096;-66
2022/09/02 07:56:00;;;;;;;1.20;0.90;;;23.40;39.90;;;;;;4789393;29;45387;-65
2022/09/02 07:58:27;;;;;;;1.40;0.65;;;23.40;39.90;;;;;;4821737;29;46056;-66
2022/09/02 08:00:54;;;;;;;1.55;0.77;;;23.40;39.90;;;;;;4835596;29;45124;-67
2022/09/02 08:03:20;;;;;;;1.30;0.70;;;23.50;40.00;;;;;;4818115;29;45514;-67
2022/09/02 08:05:46;;;;;;;0.60;0.60;;;23.50;40.00;;;;;;4837772;29;45581;-67
2022/09/02 08:08:12;;;;;;;2.85;0.60;;;23.60;39.90;;;;;;4805299;29;47734;-65
2022/09/02 08:10:38;;;;;;;0.98;0.60;;;23.60;39.90;;;;;;4836852;29;45429;-66
2022/09/02 08:13:05;;;;;;;5.60;0.77;;;23.60;39.90;;;;;;4835184;29;45074;-67
2022/09/02 08:15:31;;;;;;;2.25;0.90;;;23.60;39.80;;;;;;4839510;29;45231;-66
2022/09/02 08:17:57;;;;;;;1.33;0.50;;;23.70;39.90;;;;;;4841692;29;45336;-66
2022/09/02 08:20:22;;;;;;;2.83;0.60;;;23.70;39.90;;;;;;4825282;29;45514;-66
2022/09/02 08:22:48;;;;;;;0.77;0.63;;;23.70;39.80;;;;;;4842810;29;45243;-65
2022/09/02 08:25:16;;;;;;;1.10;0.77;;;23.70;39.80;;;;;;4827366;29;44944;-65
2022/09/02 08:27:42;;;;;;;3.92;0.70;;;23.70;39.80;;;;;;4828701;29;45355;-64
2022/09/02 08:30:10;;;;;;;2.08;0.70;;;23.70;39.70;;;;;;4839733;29;44836;-65
2022/09/02 08:32:37;;;;;;;1.33;0.65;;;23.80;39.70;;;;;;4830280;29;45617;-65
2022/09/02 08:35:03;;;;;;;1.38;0.57;;;23.80;39.70;;;;;;4842192;29;44989;-66
2022/09/02 08:37:33;;;;;;;6.78;0.70;;;23.80;39.60;;;;;;4824142;29;46004;-65
2022/09/02 08:40:02;;;;;;;2.10;0.45;;;23.90;39.70;;;;;;4837199;29;44929;-66
2022/09/02 08:42:42;;;;;;;0.70;0.50;;;24.00;39.60;;;;;;4841139;29;45361;-65
2022/09/02 08:45:12;;;;;;;1.00;0.52;;;24.00;39.50;;;;;;4808191;29;45204;-65
2022/09/02 08:47:38;;;;;;;2.88;0.65;;;24.00;39.40;;;;;;4829914;29;46000;-66
2022/09/02 08:50:15;;;;;;;2.75;0.70;;;24.00;39.30;;;;;;4829045;29;45245;-65
2022/09/02 08:52:53;;;;;;;1.67;0.90;;;24.10;39.10;;;;;;4815076;29;45521;-65
2022/09/02 08:55:21;;;;;;;1.83;0.47;;;24.10;39.10;;;;;;4840532;29;45212;-65
2022/09/02 08:57:48;;;;;;;1.02;0.63;;;24.20;39.10;;;;;;4831044;29;45513;-66
2022/09/02 09:00:14;;;;;;;1.50;0.60;;;24.10;39.00;;;;;;4826403;29;45298;-65
2022/09/02 09:02:55;;;;;;;1.63;0.68;;;24.20;38.90;;;;;;4837268;29;45061;-65
2022/09/02 09:05:46;;;;;;;1.60;0.50;;;24.20;38.50;;;;;;4847352;29;45828;-65
2022/09/02 09:08:33;;;;;;;1.30;0.68;;;24.20;38.10;;;;;;4836923;29;44989;-66
2022/09/02 09:11:22;;;;;;;0.80;0.50;;;24.30;38.30;;;;;;4834047;29;45553;-66
2022/09/02 09:14:12;;;;;;;1.05;0.50;;;24.30;38.10;;;;;;4841328;29;45379;-64
2022/09/02 09:16:58;;;;;;;1.45;0.80;;;24.30;37.50;;;;;;4826362;29;45644;-66
2022/09/02 09:19:39;;;;;;;0.98;0.47;;;24.40;37.60;;;;;;4827883;29;45010;-66
2022/09/02 09:22:05;;;;;;;2.05;0.70;;;24.40;37.20;;;;;;4838875;29;44749;-65
2022/09/02 09:24:44;;;;;;;1.95;0.50;;;24.40;37.30;;;;;;4837093;29;45750;-64
2022/09/02 09:27:12;;;;;;;3.42;0.60;;;24.40;36.50;;;;;;4811909;29;45619;-66
2022/09/02 09:29:38;;;;;;;3.25;0.63;;;24.50;37.20;;;;;;4807198;29;47184;-66
2022/09/02 09:32:04;;;;;;;2.28;0.45;;;24.50;37.00;;;;;;4830407;29;45354;-66
2022/09/02 09:34:51;;;;;;;0.95;0.40;;;24.50;36.80;;;;;;4828053;29;45499;-65
2022/09/02 09:37:28;;;;;;;0.65;0.50;;;24.60;35.90;;;;;;4824380;29;45287;-65
2022/09/02 09:39:53;;;;;;;0.75;0.50;;;24.60;35.80;;;;;;4822500;29;46122;-65
2022/09/02 09:42:29;;;;;;;0.82;0.60;;;24.60;36.10;;;;;;4838037;29;45794;-65
2022/09/02 09:44:55;;;;;;;3.50;0.60;;;24.60;35.10;;;;;;4809409;29;45232;-65
2022/09/02 09:47:24;;;;;;;0.50;0.30;;;24.60;35.50;;;;;;4835602;29;45177;-66
2022/09/02 09:49:51;;;;;;;0.70;0.50;;;24.60;35.30;;;;;;4819105;29;45169;-66
2022/09/02 09:52:28;;;;;;;0.70;0.35;;;24.70;35.20;;;;;;4829841;29;44872;-66
2022/09/02 09:55:16;;;;;;;0.65;0.55;;;24.70;34.80;;;;;;4836259;29;45596;-66
2022/09/02 09:57:43;;;;;;;1.25;0.57;;;24.70;34.40;;;;;;4841774;29;45638;-66
2022/09/02 10:00:19;;;;;;;1.15;0.50;;;24.70;35.00;;;;;;4812109;29;46223;-65
2022/09/02 10:02:50;;;;;;;0.47;0.40;;;24.80;34.40;;;;;;4832575;29;45419;-65
2022/09/02 10:05:24;;;;;;;0.55;0.38;;;24.80;34.60;;;;;;4840407;29;45487;-65
2022/09/02 10:07:54;;;;;;;2.22;0.60;;;24.80;34.20;;;;;;4845931;29;45958;-65
2022/09/02 10:10:21;;;;;;;1.33;0.50;;;24.80;34.40;;;;;;4841435;29;46262;-65
2022/09/02 10:12:48;;;;;;;1.00;0.50;;;24.80;34.60;;;;;;4844568;29;45167;-65
2022/09/02 10:15:14;;;;;;;2.95;0.60;;;24.80;34.70;;;;;;4824141;29;44879;-65
2022/09/02 10:17:58;;;;;;;2.95;0.47;;;24.80;34.60;;;;;;4835346;29;45179;-65
2022/09/02 10:20:49;;;;;;;3.15;0.50;;;24.90;34.20;;;;;;4830572;29;45670;-66
2022/09/02 10:23:31;;;;;;;1.35;0.60;;;24.90;34.00;;;;;;4814899;29;44675;-65
2022/09/02 10:26:11;;;;;;;2.55;0.45;;;24.90;34.10;;;;;;4815020;29;45234;-65
2022/09/02 10:28:44;;;;;;;0.77;0.55;;;24.90;33.60;;;;;;4836155;29;45186;-64
2022/09/02 10:31:30;;;;;;;0.82;0.50;;;24.90;34.10;;;;;;4833195;29;46082;-65
2022/09/02 10:34:16;;;;;;;0.73;0.47;;;24.90;33.80;;;;;;4824833;29;45312;-65
2022/09/02 10:36:54;;;;;;;2.90;0.40;;;24.90;33.20;;;;;;4824845;29;45184;-64
2022/09/02 10:39:45;;;;;;;1.20;0.40;;;24.90;34.00;;;;;;4839724;29;44667;-67
2022/09/02 10:42:43;;;;;;;0.73;0.40;;;25.00;33.70;;;;;;4829738;29;47000;-66
2022/09/02 10:45:30;;;;;;;1.55;0.50;;;25.00;33.20;;;;;;4825950;29;45609;-66
2022/09/02 10:48:14;;;;;;;2.30;0.57;;;25.00;32.90;;;;;;4842314;29;45123;-65
2022/09/02 10:51:08;;;;;;;4.05;0.57;;;25.00;33.50;;;;;;4823955;29;45481;-65
2022/09/02 10:53:40;;;;;;;0.80;0.50;;;25.10;32.90;;;;;;4829021;29;46243;-67
2022/09/02 10:56:20;;;;;;;0.68;0.50;;;25.10;33.30;;;;;;4844225;29;45447;-66
2022/09/02 10:58:53;;;;;;;1.95;0.40;;;25.10;33.20;;;;;;4830596;29;45245;-65
2022/09/02 11:01:21;;;;;;;1.27;0.50;;;25.20;33.70;;;;;;4816450;29;45155;-65
2022/09/02 11:03:55;;;;;;;1.67;0.50;;;25.20;33.70;;;;;;4831282;29;46128;-65
2022/09/02 11:06:27;;;;;;;0.95;0.50;;;25.20;33.70;;;;;;4839955;29;44837;-66
2022/09/02 11:08:56;;;;;;;0.85;0.60;;;25.20;33.60;;;;;;4817896;29;45507;-66
2022/09/02 11:11:38;;;;;;;3.13;0.70;;;25.20;33.40;;;;;;4827533;29;45215;-65
2022/09/02 11:14:10;;;;;;;1.02;0.43;;;25.20;33.30;;;;;;4830652;29;45904;-65
2022/09/02 11:16:44;;;;;;;1.23;0.50;;;25.20;33.00;;;;;;4829177;29;44766;-66
2022/09/02 11:19:20;;;;;;;2.67;0.50;;;25.20;33.30;;;;;;4831593;29;45339;-66
2022/09/02 11:22:06;;;;;;;1.02;0.60;;;25.20;33.10;;;;;;4828099;29;45349;-65
2022/09/02 11:24:35;;;;;;;1.65;0.73;;;25.20;33.20;;;;;;4845809;29;45264;-65
2022/09/02 11:27:11;;;;;;;2.05;0.70;;;25.30;33.30;;;;;;4834363;29;44942;-66
2022/09/02 11:30:14;;;;;;;1.77;0.75;;;25.30;33.00;;;;;;4814450;29;44989;-66
2022/09/02 11:32:45;;;;;;;2.85;0.40;;;25.40;32.30;;;;;;4824793;29;45150;-67
2022/09/02 11:35:17;;;;;;;0.50;0.40;;;25.40;33.20;;;;;;4841679;29;45301;-67
2022/09/02 11:37:58;;;;;;;4.65;0.60;;;25.40;33.00;;;;;;4831179;29;45345;-66
2022/09/02 11:40:37;;;;;;;1.45;0.60;;;25.30;33.10;;;;;;4847659;29;45375;-66
2022/09/02 11:43:34;;;;;;;1.05;0.63;;;25.30;32.60;;;;;;4833013;29;44713;-66
2022/09/02 11:46:16;;;;;;;0.60;0.40;;;25.40;32.80;;;;;;4843817;29;45939;-65
2022/09/02 11:49:01;;;;;;;1.83;0.50;;;25.40;33.70;;;;;;4826492;29;45367;-66
2022/09/02 11:52:08;;;;;;;2.83;0.75;;;25.40;33.10;;;;;;4822256;29;45613;-65
2022/09/02 11:54:40;;;;;;;1.45;0.50;;;25.40;32.60;;;;;;4843946;29;45185;-65
2022/09/02 11:57:06;;;;;;;1.13;0.60;;;25.40;33.10;;;;;;4841226;29;47229;-66
2022/09/02 11:59:50;;;;;;;1.05;0.77;;;25.40;33.20;;;;;;4795903;29;45604;-66
2022/09/02 12:02:40;;;;;;;2.65;0.40;;;25.50;32.70;;;;;;4840257;29;44780;-67
2022/09/02 12:05:28;;;;;;;1.42;0.77;;;25.50;32.80;;;;;;4810562;29;44735;-67
2022/09/02 12:07:55;;;;;;;0.90;0.60;;;25.50;32.80;;;;;;4842132;29;46116;-67
2022/09/02 12:10:58;;;;;;;1.58;0.55;;;25.50;33.30;;;;;;4824828;29;44914;-66
2022/09/02 12:13:42;;;;;;;0.47;0.40;;;25.50;32.50;;;;;;4827501;29;45446;-65
2022/09/02 12:16:19;;;;;;;1.25;0.38;;;25.50;32.70;;;;;;4842918;29;44885;-66
2022/09/02 12:18:54;;;;;;;1.67;0.60;;;25.40;32.60;;;;;;4824539;29;47268;-67
2022/09/02 12:22:01;;;;;;;0.82;0.47;;;25.40;32.70;;;;;;4839831;29;45596;-66
2022/09/02 12:24:26;;;;;;;2.83;0.77;;;25.50;32.40;;;;;;4842472;29;45254;-66
2022/09/02 12:26:52;;;;;;;1.95;0.50;;;25.50;33.00;;;;;;4825967;29;44820;-66
2022/09/02 12:29:17;;;;;;;1.00;0.55;;;25.50;32.90;;;;;;4840763;29;45886;-65
2022/09/02 12:31:44;;;;;;;1.02;0.50;;;25.50;32.90;;;;;;4841868;29;45619;-65
2022/09/02 12:34:19;;;;;;;0.80;0.60;;;25.50;32.90;;;;;;4841445;29;45570;-66
2022/09/02 12:36:51;;;;;;;2.55;0.45;;;25.50;32.70;;;;;;4840905;29;45492;-66
2022/09/02 12:39:23;;;;;;;0.40;0.30;;;25.50;32.90;;;;;;4822966;29;46718;-65
2022/09/02 12:41:54;;;;;;;1.08;0.40;;;25.50;32.90;;;;;;4842698;29;45567;-65
2022/09/02 12:44:26;;;;;;;0.93;0.40;;;25.60;33.00;;;;;;4842709;29;45454;-65
2022/09/02 12:46:57;;;;;;;1.35;0.32;;;25.60;33.00;;;;;;4841822;29;45693;-65
2022/09/02 12:49:47;;;;;;;0.60;0.50;;;25.60;33.00;;;;;;4831714;29;46153;-66
2022/09/02 12:52:39;;;;;;;0.95;0.40;;;25.60;32.80;;;;;;4808155;29;45321;-65
2022/09/02 12:55:11;;;;;;;0.88;0.30;;;25.60;32.40;;;;;;4834845;29;45977;-65
2022/09/02 12:57:41;;;;;;;1.10;0.50;;;25.60;33.00;;;;;;4839602;29;45267;-65
2022/09/02 13:00:09;;;;;;;1.10;0.47;;;25.60;33.00;;;;;;4823447;29;47085;-65
2022/09/02 13:03:12;;;;;;;0.55;0.40;;;25.60;33.20;;;;;;4833511;29;44649;-65
2022/09/02 13:06:02;;;;;;;1.30;0.40;;;25.60;32.70;;;;;;4840268;29;45308;-66
2022/09/02 13:08:43;;;;;;;0.60;0.40;;;25.60;33.00;;;;;;4840062;29;45293;-66
2022/09/02 13:11:36;;;;;;;2.00;0.40;;;25.60;33.00;;;;;;4843163;29;46219;-66
2022/09/02 13:14:08;;;;;;;1.23;0.40;;;25.60;32.40;;;;;;4838870;29;45586;-66
2022/09/02 13:16:43;;;;;;;2.08;0.40;;;25.60;32.40;;;;;;4837627;29;46209;-65
2022/09/02 13:19:40;;;;;;;1.63;0.60;;;25.60;32.40;;;;;;4819340;29;45629;-66
2022/09/02 13:22:34;;;;;;;0.80;0.50;;;25.60;31.90;;;;;;4821587;29;46177;-66
2022/09/02 13:25:35;;;;;;;1.60;0.28;;;25.60;31.70;;;;;;4824391;29;45537;-65
2022/09/02 13:28:07;;;;;;;0.50;0.40;;;25.60;31.90;;;;;;4838434;29;45508;-67
2022/09/02 13:30:50;;;;;;;0.60;0.40;;;25.60;31.90;;;;;;4838806;29;46233;-67
2022/09/02 13:33:16;;;;;;;0.60;0.30;;;25.60;32.30;;;;;;4840436;29;45401;-66
2022/09/02 13:35:42;;;;;;;0.80;0.40;;;25.50;32.20;;;;;;4810219;29;45004;-66
2022/09/02 13:38:11;;;;;;;1.55;0.50;;;25.50;32.20;;;;;;4808660;29;45418;-66
2022/09/02 13:40:37;;;;;;;1.20;0.57;;;25.60;32.20;;;;;;4838473;29;45209;-66
2022/09/02 13:43:15;;;;;;;1.92;0.40;;;25.60;32.20;;;;;;4840484;29;45227;-67
2022/09/02 13:45:41;;;;;;;0.63;0.30;;;25.60;32.10;;;;;;4823765;29;45412;-66
2022/09/02 13:48:09;;;;;;;0.55;0.43;;;25.60;32.00;;;;;;4842177;29;45502;-66
2022/09/02 13:50:34;;;;;;;0.28;0.28;;;25.60;31.90;;;;;;4839429;29;45353;-66
2022/09/02 13:53:01;;;;;;;0.30;0.30;;;25.60;31.80;;;;;;4839090;29;46123;-66
2022/09/02 13:55:27;;;;;;;0.40;0.30;;;25.60;31.80;;;;;;4809571;29;45308;-66
2022/09/02 13:58:04;;;;;;;2.90;0.45;;;25.60;31.90;;;;;;4824222;29;45095;-66
2022/09/02 14:00:32;;;;;;;0.35;0.30;;;25.60;31.40;;;;;;4822677;29;45654;-66
2022/09/02 14:03:09;;;;;;;3.13;0.45;;;25.60;31.80;;;;;;4839460;29;47275;-65
2022/09/02 14:05:36;;;;;;;0.35;0.32;;;25.60;31.80;;;;;;4837703;29;46338;-65
2022/09/02 14:08:04;;;;;;;0.65;0.30;;;25.60;31.90;;;;;;4824188;29;45313;-67
2022/09/02 14:10:30;;;;;;;0.75;0.25;;;25.60;31.90;;;;;;4836169;29;45764;-66
2022/09/02 14:12:56;;;;;;;0.93;0.38;;;25.60;31.90;;;;;;4839591;29;45783;-66
2022/09/02 14:15:31;;;;;;;0.57;0.30;;;25.60;32.00;;;;;;4821869;29;45424;-66
2022/09/02 14:18:10;;;;;;;2.50;0.40;;;25.60;31.70;;;;;;4840953;29;45376;-66
2022/09/02 14:20:37;;;;;;;1.67;0.30;;;25.60;31.70;;;;;;4832284;29;45081;-67
2022/09/02 14:23:02;;;;;;;1.33;0.40;;;25.60;32.00;;;;;;4821291;29;45614;-66
2022/09/02 14:25:36;;;;;;;0.82;0.35;;;25.60;31.90;;;;;;4839060;29;45232;-66
2022/09/02 14:28:08;;;;;;;0.57;0.40;;;25.60;31.60;;;;;;4816949;29;45640;-66
2022/09/02 14:30:36;;;;;;;0.60;0.40;;;25.60;31.70;;;;;;4808614;29;45569;-70
2022/09/02 14:33:36;;;;;;;2.75;0.28;;;25.50;31.70;;;;;;4823448;29;45046;-66
2022/09/02 14:36:16;;;;;;;2.47;0.30;;;25.60;31.20;;;;;;4830254;29;45297;-65
2022/09/02 14:38:45;;;;;;;0.47;0.40;;;25.50;31.30;;;;;;4842668;29;45287;-65
2022/09/02 14:41:27;;;;;;;0.57;0.30;;;25.50;31.60;;;;;;4837712;29;45386;-65
2022/09/02 14:44:06;;;;;;;3.40;0.50;;;25.50;31.80;;;;;;4825749;29;46027;-65
2022/09/02 14:46:36;;;;;;;2.47;0.40;;;25.50;31.60;;;;;;4845362;29;45638;-66
2022/09/02 14:49:07;;;;;;;1.90;0.45;;;25.50;31.80;;;;;;4833494;29;45008;-65
2022/09/02 14:51:44;;;;;;;2.75;0.30;;;25.50;31.80;;;;;;4837249;29;45454;-66
2022/09/02 14:54:10;;;;;;;2.10;0.30;;;25.50;31.70;;;;;;4831119;29;45410;-67
2022/09/02 14:56:51;;;;;;;1.20;0.40;;;25.50;31.80;;;;;;4815860;29;45344;-66
2022/09/02 14:59:17;;;;;;;1.63;0.50;;;25.50;31.50;;;;;;4844083;29;45368;-65
2022/09/02 15:01:47;;;;;;;0.80;0.35;;;25.50;31.90;;;;;;4843168;29;45390;-69
2022/09/02 15:04:14;;;;;;;0.73;0.35;;;25.50;31.90;;;;;;4839894;29;46291;-65
2022/09/02 15:06:43;;;;;;;1.92;0.43;;;25.50;32.00;;;;;;4844018;29;45286;-66
2022/09/02 15:09:09;;;;;;;0.57;0.28;;;25.50;31.90;;;;;;4829781;29;45642;-65
2022/09/02 15:11:36;;;;;;;2.10;0.40;;;25.50;31.90;;;;;;4832292;29;45208;-66
2022/09/02 15:14:02;;;;;;;1.20;0.50;;;25.50;32.00;;;;;;4825748;29;46168;-65
2022/09/02 15:16:28;;;;;;;3.80;0.43;;;25.50;31.90;;;;;;4842224;29;44972;-66
2022/09/02 15:18:54;;;;;;;0.40;0.30;;;25.50;32.00;;;;;;4833081;29;44673;-64
2022/09/02 15:21:19;;;;;;;1.42;0.52;;;25.40;31.90;;;;;;4840546;29;45536;-66
2022/09/02 15:23:45;;;;;;;0.85;0.40;;;25.50;32.50;;;;;;4822490;29;46157;-66
2022/09/02 15:26:11;;;;;;;1.27;0.50;;;25.50;31.90;;;;;;4840832;29;45215;-65
2022/09/02 15:28:37;;;;;;;0.30;0.30;;;25.40;31.80;;;;;;4828971;29;45477;-66
2022/09/02 15:31:02;;;;;;;0.68;0.32;;;25.40;31.80;;;;;;4825270;29;46248;-66
2022/09/02 15:33:28;;;;;;;0.35;0.30;;;25.40;31.90;;;;;;4826157;29;45155;-65
2022/09/02 15:35:54;;;;;;;0.82;0.35;;;25.40;31.90;;;;;;4823641;29;45312;-65
2022/09/02 15:38:20;;;;;;;0.75;0.35;;;25.40;32.00;;;;;;4824211;29;45630;-66
2022/09/02 15:40:45;;;;;;;1.00;0.40;;;25.40;31.90;;;;;;4828968;29;45296;-65
2022/09/02 15:43:11;;;;;;;0.30;0.30;;;25.40;31.80;;;;;;4823409;29;45325;-65
2022/09/02 15:45:44;;;;;;;1.08;0.30;;;25.40;31.80;;;;;;4840757;29;45288;-66
2022/09/02 15:48:10;;;;;;;;;;;25.40;31.80;;;;;;4796931;29;45755;-67
2022/09/02 15:50:35;;;;;;;0.90;0.50;;;25.40;31.40;;;;;;4839464;29;45695;-66
2022/09/02 15:53:01;;;;;;;2.63;0.45;;;25.40;31.90;;;;;;4840858;29;45068;-66
2022/09/02 15:55:26;;;;;;;1.48;0.43;;;25.40;31.80;;;;;;4839506;29;45170;-66
2022/09/02 15:57:52;;;;;;;0.63;0.30;;;25.40;31.90;;;;;;4838763;29;45588;-68
2022/09/02 16:00:18;;;;;;;2.35;0.40;;;25.40;31.90;;;;;;4837815;29;45317;-67
2022/09/02 16:02:43;;;;;;;2.72;0.38;;;25.40;32.00;;;;;;4840985;29;46167;-66
2022/09/02 16:05:10;;;;;;;0.90;0.60;;;25.40;32.00;;;;;;4836521;29;45590;-66
2022/09/02 16:07:36;;;;;;;0.73;0.40;;;25.40;32.00;;;;;;4841043;29;45352;-66
2022/09/02 16:10:02;;;;;;;0.60;0.22;;;25.40;32.00;;;;;;4840982;29;45966;-65
2022/09/02 16:12:29;;;;;;;0.63;0.38;;;25.50;32.10;;;;;;4836549;29;46923;-66